Buoy 46762

sailwx.info

Track history (hours):
 
Tides and Currents Weather Stations Pressure Air Temp Water Temp Dewpoint Dewpoint Depression Visibility Wind Speed Wind Dir Waves Ship Positions

Drifting buoy 46762

Last reported at 2016-Jan-25 22:10 UTC. Time now 2016-Jun-30 21:26 UTC.
Position N 57°07' W 152°55'.
Warning: this ship's position is months out of date.

Barometer 971.1 mb
Water temperature 5.6 ° C

Date/timePositionNaut miles runAvg speedWind from/ knotsBaromVisibWave heightAir tempDewpointWater temp
2016-Jan-25 22:10N 57°07' W 152°55'0 0.2 971.1 5.6
2016-Jan-25 21:10N 57°07' W 152°55'2 1.8 971.1 5.6
2016-Jan-25 20:10N 57°06' W 152°52'0 0.0 971.0 5.7
2016-Jan-25 19:10N 57°06' W 152°52'2 1.8 971.2 5.7
2016-Jan-25 18:10N 57°04' W 152°52'0 0.0 971.3 6.0
2016-Jan-25 17:10N 57°04' W 152°52'1 1.1 971.2 6.4
2016-Jan-25 16:10N 57°04' W 152°50'1 0.9 971.8 6.5
2016-Jan-25 15:10N 57°04' W 152°49'2 1.6 972.6 6.5
2016-Jan-25 14:10N 57°03' W 152°46'1 0.9 973.0 6.5
2016-Jan-25 13:10N 57°04' W 152°46'0 0.0 974.0 6.5
2016-Jan-25 12:10N 57°04' W 152°46'3 2.5 975.0 6.5
2016-Jan-25 11:10N 57°03' W 152°41'3 0.7 975.8 6.4
2016-Jan-25 07:10N 57°03' W 152°36'2 0.9 978.4 6.4
2016-Jan-25 05:10N 57°02' W 152°33'0 0.3 980.1 6.3
2016-Jan-25 04:10N 57°02' W 152°33'2 1.9 981.6 6.4
2016-Jan-25 03:10N 57°01' W 152°30'1 0.7 982.5 6.3
2016-Jan-25 02:10N 57°02' W 152°29'2 1.2 983.6 6.4
2016-Jan-25 00:10N 56°60' W 152°29'1 1.1 985.8 6.3
2016-Jan-24 23:10N 56°60' W 152°27'4 0.7 986.5 6.2
2016-Jan-24 17:10N 56°55' W 152°27'1 1.0 987.3 6.4
2016-Jan-24 16:10N 56°54' W 152°27'1 1.3 986.3 6.4
2016-Jan-24 15:10N 56°53' W 152°29'3 1.3 986.0 6.4
2016-Jan-24 13:10N 56°51' W 152°27'2 1.1 985.4 6.4
2016-Jan-24 11:10N 56°49' W 152°25'0 0.0 984.0 6.4
2016-Jan-24 10:10N 56°49' W 152°25'0 0.0 983.5 6.4
2016-Jan-24 09:10N 56°49' W 152°25'0 0.0 983.3 6.4
2016-Jan-24 08:10N 56°49' W 152°25'0 0.3 983.3 6.5
2016-Jan-24 07:10N 56°49' W 152°25'1 0.7 982.9 6.5
2016-Jan-24 06:10N 56°48' W 152°24'0 0.3 982.7 6.5
2016-Jan-24 05:10N 56°48' W 152°24'1 0.6 982.6 6.5
2016-Jan-24 04:10N 56°48' W 152°23'0 0.1 982.3 6.6
2016-Jan-24 03:10N 56°48' W 152°23'1 1.3 982.2 6.5
2016-Jan-24 02:10N 56°48' W 152°20'1 0.9 981.7 6.5
2016-Jan-24 01:10N 56°47' W 152°21'2 1.7 981.7 6.6
2016-Jan-24 00:10N 56°47' W 152°18'0 0.0 981.7 6.4
2016-Jan-23 23:10N 56°47' W 152°18'1 0.7 981.9 6.5
2016-Jan-23 21:10N 56°46' W 152°17'1 0.8 983.0 6.6
2016-Jan-23 20:10N 56°45' W 152°17'0 0.1 983.6 6.6
2016-Jan-23 19:10N 56°45' W 152°17'1 1.0 984.2 6.6
2016-Jan-23 18:10N 56°44' W 152°17'1 0.9 984.6 6.5
2016-Jan-23 17:10N 56°43' W 152°16'2 0.9 985.2 6.6
2016-Jan-23 15:10N 56°42' W 152°17'1 0.6 986.5 6.6
2016-Jan-23 14:10N 56°41' W 152°18'5 1.8 987.1 6.6
2016-Jan-23 11:10N 56°36' W 152°20'0 0.0 988.1 6.7
2016-Jan-23 10:10N 56°36' W 152°20'0 0.0 988.1 6.7
2016-Jan-23 08:10N 56°36' W 152°20'0 0.5 987.9 6.7
2016-Jan-23 07:10N 56°36' W 152°19'2 1.6 988.2 6.7
2016-Jan-23 06:10N 56°35' W 152°17'0 0.2 988.1 6.7
2016-Jan-23 05:10N 56°35' W 152°17'3 2.5 987.9 6.7
2016-Jan-23 04:10N 56°35' W 152°12'0 0.0 987.7 6.7
2016-Jan-23 03:10N 56°35' W 152°12'1 0.7 987.4 6.7
2016-Jan-23 02:10N 56°36' W 152°13'1 1.4 987.0 6.7
2016-Jan-23 01:10N 56°34' W 152°12'0 0.0 986.6 6.7
2016-Jan-23 00:10N 56°34' W 152°12'6 5.6 986.2 6.7
2016-Jan-22 23:10N 56°40' W 152°08'2 0.4 985.9 6.7
2016-Jan-22 17:10N 56°42' W 152°10'1 0.6 983.5 6.7
2016-Jan-22 15:10N 56°41' W 152°12'1 0.8 982.8 6.7
2016-Jan-22 14:10N 56°41' W 152°13'1 1.4 982.5 6.6
2016-Jan-22 13:10N 56°39' W 152°13'1 0.6 982.4 6.6
2016-Jan-22 12:10N 56°40' W 152°14'1 0.9 982.0 6.6
2016-Jan-22 11:10N 56°40' W 152°16'2 1.8 981.6 6.6
2016-Jan-22 10:10N 56°39' W 152°12'0 0.0 981.3 6.6
2016-Jan-22 08:10N 56°39' W 152°12'1 1.2 980.7 6.6
2016-Jan-22 07:10N 56°40' W 152°10'1 0.5 980.6 6.6
2016-Jan-22 05:10N 56°41' W 152°10'2 2.0 980.7 6.6
2016-Jan-22 04:10N 56°42' W 152°08'2 1.7 980.6 6.6
2016-Jan-22 03:10N 56°44' W 152°06'0 0.0 980.5 6.6
2016-Jan-22 02:10N 56°44' W 152°06'0 0.1 979.9 6.6
2016-Jan-22 01:10N 56°44' W 152°06'2 1.6 979.2 6.5
2016-Jan-22 00:10N 56°45' W 152°03'3 1.3 978.6 6.5
2016-Jan-21 22:10N 56°47' W 152°01'0 0.0 978.6 6.4
2016-Jan-21 21:10N 56°47' W 152°01'5 1.1 979.1 6.4
2016-Jan-21 16:10N 56°50' W 151°54'1 1.3 981.5 6.6
2016-Jan-21 15:10N 56°51' W 151°52'0 0.5 982.1 6.6
2016-Jan-21 14:10N 56°51' W 151°52'2 2.1 982.7 6.6
2016-Jan-21 13:10N 56°52' W 151°49'5 4.7 983.2 6.6
2016-Jan-21 12:10N 56°53' W 151°41'0 0.0 984.1 6.6
2016-Jan-21 10:10N 56°53' W 151°41'7 1.4 985.7 6.7
2016-Jan-21 05:10N 56°58' W 151°30'6 1.2 990.4 6.8
2016-Jan-21 00:10N 57°00' W 151°20'2 2.5 993.6 6.8
2016-Jan-20 23:10N 57°00' W 151°16'4 1.0 994.1 6.8
2016-Jan-20 19:10N 57°03' W 151°10'3 2.6 996.2 6.8
2016-Jan-20 18:10N 57°03' W 151°05'5 1.2 996.0 6.8
2016-Jan-20 14:10N 57°05' W 150°58'3 0.5 994.8 6.8
2016-Jan-20 09:10N 57°06' W 150°54'3 1.0 993.6 6.8
2016-Jan-20 06:10N 57°07' W 150°48'2 1.7 993.0 6.8
2016-Jan-20 05:10N 57°08' W 150°46'1 0.6 992.8 6.8
2016-Jan-20 04:10N 57°08' W 150°45'1 0.8 992.5 6.8
2016-Jan-20 03:10N 57°09' W 150°44'1 1.3 992.3 6.8
2016-Jan-20 02:10N 57°09' W 150°41'4 1.8 992.1 6.8
2016-Jan-20 00:10N 57°11' W 150°36'0 0.0 991.6 6.9
2016-Jan-19 23:10N 57°11' W 150°36'3 3.1 991.6 6.8
2016-Jan-19 22:10N 57°13' W 150°31'0 0.0 991.7 6.8
2016-Jan-19 21:10N 57°13' W 150°31'4 2.0 991.8 6.8
2016-Jan-19 19:10N 57°14' W 150°25'1 1.3 991.9 6.8
2016-Jan-19 18:10N 57°16' W 150°24'3 1.3 991.6 6.8
2016-Jan-19 16:10N 57°17' W 150°20'1 1.5 991.7 6.5
2016-Jan-19 15:10N 57°18' W 150°18'2 2.5 991.7 6.5
2016-Jan-19 14:10N 57°20' W 150°15'9 0.8 991.6 6.5
2016-Jan-19 03:10N 57°21' W 149°59'0 0.4 988.0 6.8
2016-Jan-19 02:10N 57°21' W 149°59'2 1.5 987.5 6.8
2016-Jan-19 01:10N 57°22' W 149°57'2 0.4 987.1 6.8
2016-Jan-18 21:10N 57°23' W 149°56'0 0.4 986.3 6.8
2016-Jan-18 20:10N 57°23' W 149°56'2 0.7 985.9 6.8
2016-Jan-18 17:10N 57°23' W 149°52'1 0.6 984.1 6.6
2016-Jan-18 16:10N 57°22' W 149°52'3 0.9 983.8 6.6
2016-Jan-18 13:10N 57°24' W 149°48'1 0.6 983.6 6.6
2016-Jan-18 11:10N 57°24' W 149°46'2 0.4 983.4 6.6
2016-Jan-18 05:10N 57°25' W 149°42'6 1.4 983.6 6.6
2016-Jan-18 01:10N 57°28' W 149°32'1 0.6 984.2 6.6
2016-Jan-18 00:10N 57°28' W 149°31'1 1.1 984.8 6.6
2016-Jan-17 23:10N 57°29' W 149°30'1 0.5 985.5 6.6
2016-Jan-17 22:10N 57°29' W 149°30'0 0.4 986.0 6.6
2016-Jan-17 21:10N 57°29' W 149°29'0 0.4 986.6 6.6
2016-Jan-17 20:10N 57°30' W 149°30'9 0.5 987.0 6.6
2016-Jan-17 03:10N 57°31' W 149°13'1 0.3 980.9 6.6
2016-Jan-17 01:10N 57°31' W 149°12'1 1.3 980.0 6.5
2016-Jan-17 00:10N 57°31' W 149°14'0 0.0 979.5 6.5
2016-Jan-16 23:10N 57°31' W 149°14'3 2.8 979.6 6.5
2016-Jan-16 22:10N 57°33' W 149°10'2 1.0 979.8 6.6
2016-Jan-16 20:10N 57°34' W 149°07'0 0.0 980.4 6.5
2016-Jan-16 19:10N 57°34' W 149°07'1 0.5 980.6 6.5
2016-Jan-16 18:10N 57°34' W 149°07'1 0.8 980.8 6.5
2016-Jan-16 17:10N 57°35' W 149°06'2 2.1 981.1 6.5
2016-Jan-16 16:10N 57°36' W 149°02'1 0.5 981.7 6.5
2016-Jan-16 14:10N 57°35' W 149°02'4 1.9 983.3 6.5
2016-Jan-16 12:10N 57°36' W 148°56'0 0.0 985.2 6.4
2016-Jan-16 11:10N 57°36' W 148°56'3 1.4 986.1 6.6
2016-Jan-16 09:10N 57°38' W 148°51'0 0.0 987.7 6.7
2016-Jan-16 08:10N 57°38' W 148°51'2 1.6 988.4 6.7
2016-Jan-16 07:10N 57°39' W 148°49'0 0.0 989.1 6.4
2016-Jan-16 06:10N 57°39' W 148°49'1 1.3 989.8 6.2
2016-Jan-16 05:10N 57°38' W 148°47'2 1.8 990.7 6.3
2016-Jan-16 04:10N 57°39' W 148°45'1 0.6 991.1 6.4
2016-Jan-16 03:10N 57°39' W 148°44'3 1.3 992.0 6.4
2016-Jan-16 01:10N 57°39' W 148°39'   993.4 6.5
Track history (hours):
 
Tides and Currents Weather Stations Pressure Air Temp Water Temp Dewpoint Dewpoint Depression Visibility Wind Speed Wind Dir Waves Ship Positions

Drifting buoy 46762

Last reported at 2016-Jan-25 22:10 UTC. Time now 2016-Jun-30 21:26 UTC.
Position N 57°07' W 152°55'.
Warning: this ship's position is months out of date.

Barometer 971.1 mb
Water temperature 5.6 ° C

Date/timePositionNaut miles runAvg speedWind from/ knotsBaromVisibWave heightAir tempDewpointWater temp
2016-Jan-25 22:10N 57°07' W 152°55'0 0.2 971.1 5.6
2016-Jan-25 21:10N 57°07' W 152°55'2 1.8 971.1 5.6
2016-Jan-25 20:10N 57°06' W 152°52'0 0.0 971.0 5.7
2016-Jan-25 19:10N 57°06' W 152°52'2 1.8 971.2 5.7
2016-Jan-25 18:10N 57°04' W 152°52'0 0.0 971.3 6.0
2016-Jan-25 17:10N 57°04' W 152°52'1 1.1 971.2 6.4
2016-Jan-25 16:10N 57°04' W 152°50'1 0.9 971.8 6.5
2016-Jan-25 15:10N 57°04' W 152°49'2 1.6 972.6 6.5
2016-Jan-25 14:10N 57°03' W 152°46'1 0.9 973.0 6.5
2016-Jan-25 13:10N 57°04' W 152°46'0 0.0 974.0 6.5
2016-Jan-25 12:10N 57°04' W 152°46'3 2.5 975.0 6.5
2016-Jan-25 11:10N 57°03' W 152°41'3 0.7 975.8 6.4
2016-Jan-25 07:10N 57°03' W 152°36'2 0.9 978.4 6.4
2016-Jan-25 05:10N 57°02' W 152°33'0 0.3 980.1 6.3
2016-Jan-25 04:10N 57°02' W 152°33'2 1.9 981.6 6.4
2016-Jan-25 03:10N 57°01' W 152°30'1 0.7 982.5 6.3
2016-Jan-25 02:10N 57°02' W 152°29'2 1.2 983.6 6.4
2016-Jan-25 00:10N 56°60' W 152°29'1 1.1 985.8 6.3
2016-Jan-24 23:10N 56°60' W 152°27'4 0.7 986.5 6.2
2016-Jan-24 17:10N 56°55' W 152°27'1 1.0 987.3 6.4
2016-Jan-24 16:10N 56°54' W 152°27'1 1.3 986.3 6.4
2016-Jan-24 15:10N 56°53' W 152°29'3 1.3 986.0 6.4
2016-Jan-24 13:10N 56°51' W 152°27'2 1.1 985.4 6.4
2016-Jan-24 11:10N 56°49' W 152°25'0 0.0 984.0 6.4
2016-Jan-24 10:10N 56°49' W 152°25'0 0.0 983.5 6.4
2016-Jan-24 09:10N 56°49' W 152°25'0 0.0 983.3 6.4
2016-Jan-24 08:10N 56°49' W 152°25'0 0.3 983.3 6.5
2016-Jan-24 07:10N 56°49' W 152°25'1 0.7 982.9 6.5
2016-Jan-24 06:10N 56°48' W 152°24'0 0.3 982.7 6.5
2016-Jan-24 05:10N 56°48' W 152°24'1 0.6 982.6 6.5
2016-Jan-24 04:10N 56°48' W 152°23'0 0.1 982.3 6.6
2016-Jan-24 03:10N 56°48' W 152°23'1 1.3 982.2 6.5
2016-Jan-24 02:10N 56°48' W 152°20'1 0.9 981.7 6.5
2016-Jan-24 01:10N 56°47' W 152°21'2 1.7 981.7 6.6
2016-Jan-24 00:10N 56°47' W 152°18'0 0.0 981.7 6.4
2016-Jan-23 23:10N 56°47' W 152°18'1 0.7 981.9 6.5
2016-Jan-23 21:10N 56°46' W 152°17'1 0.8 983.0 6.6
2016-Jan-23 20:10N 56°45' W 152°17'0 0.1 983.6 6.6
2016-Jan-23 19:10N 56°45' W 152°17'1 1.0 984.2 6.6
2016-Jan-23 18:10N 56°44' W 152°17'1 0.9 984.6 6.5
2016-Jan-23 17:10N 56°43' W 152°16'2 0.9 985.2 6.6
2016-Jan-23 15:10N 56°42' W 152°17'1 0.6 986.5 6.6
2016-Jan-23 14:10N 56°41' W 152°18'5 1.8 987.1 6.6
2016-Jan-23 11:10N 56°36' W 152°20'0 0.0 988.1 6.7
2016-Jan-23 10:10N 56°36' W 152°20'0 0.0 988.1 6.7
2016-Jan-23 08:10N 56°36' W 152°20'0 0.5 987.9 6.7
2016-Jan-23 07:10N 56°36' W 152°19'2 1.6 988.2 6.7
2016-Jan-23 06:10N 56°35' W 152°17'0 0.2 988.1 6.7
2016-Jan-23 05:10N 56°35' W 152°17'3 2.5 987.9 6.7
2016-Jan-23 04:10N 56°35' W 152°12'0 0.0 987.7 6.7
2016-Jan-23 03:10N 56°35' W 152°12'1 0.7 987.4 6.7
2016-Jan-23 02:10N 56°36' W 152°13'1 1.4 987.0 6.7
2016-Jan-23 01:10N 56°34' W 152°12'0 0.0 986.6 6.7
2016-Jan-23 00:10N 56°34' W 152°12'6 5.6 986.2 6.7
2016-Jan-22 23:10N 56°40' W 152°08'2 0.4 985.9 6.7
2016-Jan-22 17:10N 56°42' W 152°10'1 0.6 983.5 6.7
2016-Jan-22 15:10N 56°41' W 152°12'1 0.8 982.8 6.7
2016-Jan-22 14:10N 56°41' W 152°13'1 1.4 982.5 6.6
2016-Jan-22 13:10N 56°39' W 152°13'1 0.6 982.4 6.6
2016-Jan-22 12:10N 56°40' W 152°14'1 0.9 982.0 6.6
2016-Jan-22 11:10N 56°40' W 152°16'2 1.8 981.6 6.6
2016-Jan-22 10:10N 56°39' W 152°12'0 0.0 981.3 6.6
2016-Jan-22 08:10N 56°39' W 152°12'1 1.2 980.7 6.6
2016-Jan-22 07:10N 56°40' W 152°10'1 0.5 980.6 6.6
2016-Jan-22 05:10N 56°41' W 152°10'2 2.0 980.7 6.6
2016-Jan-22 04:10N 56°42' W 152°08'2 1.7 980.6 6.6
2016-Jan-22 03:10N 56°44' W 152°06'0 0.0 980.5 6.6
2016-Jan-22 02:10N 56°44' W 152°06'0 0.1 979.9 6.6
2016-Jan-22 01:10N 56°44' W 152°06'2 1.6 979.2 6.5
2016-Jan-22 00:10N 56°45' W 152°03'3 1.3 978.6 6.5
2016-Jan-21 22:10N 56°47' W 152°01'0 0.0 978.6 6.4
2016-Jan-21 21:10N 56°47' W 152°01'5 1.1 979.1 6.4
2016-Jan-21 16:10N 56°50' W 151°54'1 1.3 981.5 6.6
2016-Jan-21 15:10N 56°51' W 151°52'0 0.5 982.1 6.6
2016-Jan-21 14:10N 56°51' W 151°52'2 2.1 982.7 6.6
2016-Jan-21 13:10N 56°52' W 151°49'5 4.7 983.2 6.6
2016-Jan-21 12:10N 56°53' W 151°41'0 0.0 984.1 6.6
2016-Jan-21 10:10N 56°53' W 151°41'7 1.4 985.7 6.7
2016-Jan-21 05:10N 56°58' W 151°30'6 1.2 990.4 6.8
2016-Jan-21 00:10N 57°00' W 151°20'2 2.5 993.6 6.8
2016-Jan-20 23:10N 57°00' W 151°16'4 1.0 994.1 6.8
2016-Jan-20 19:10N 57°03' W 151°10'3 2.6 996.2 6.8
2016-Jan-20 18:10N 57°03' W 151°05'5 1.2 996.0 6.8
2016-Jan-20 14:10N 57°05' W 150°58'3 0.5 994.8 6.8
2016-Jan-20 09:10N 57°06' W 150°54'3 1.0 993.6 6.8
2016-Jan-20 06:10N 57°07' W 150°48'2 1.7 993.0 6.8
2016-Jan-20 05:10N 57°08' W 150°46'1 0.6 992.8 6.8
2016-Jan-20 04:10N 57°08' W 150°45'1 0.8 992.5 6.8
2016-Jan-20 03:10N 57°09' W 150°44'1 1.3 992.3 6.8
2016-Jan-20 02:10N 57°09' W 150°41'4 1.8 992.1 6.8
2016-Jan-20 00:10N 57°11' W 150°36'0 0.0 991.6 6.9
2016-Jan-19 23:10N 57°11' W 150°36'3 3.1 991.6 6.8
2016-Jan-19 22:10N 57°13' W 150°31'0 0.0 991.7 6.8
2016-Jan-19 21:10N 57°13' W 150°31'4 2.0 991.8 6.8
2016-Jan-19 19:10N 57°14' W 150°25'1 1.3 991.9 6.8
2016-Jan-19 18:10N 57°16' W 150°24'3 1.3 991.6 6.8
2016-Jan-19 16:10N 57°17' W 150°20'1 1.5 991.7 6.5
2016-Jan-19 15:10N 57°18' W 150°18'2 2.5 991.7 6.5
2016-Jan-19 14:10N 57°20' W 150°15'9 0.8 991.6 6.5
2016-Jan-19 03:10N 57°21' W 149°59'0 0.4 988.0 6.8
2016-Jan-19 02:10N 57°21' W 149°59'2 1.5 987.5 6.8
2016-Jan-19 01:10N 57°22' W 149°57'2 0.4 987.1 6.8
2016-Jan-18 21:10N 57°23' W 149°56'0 0.4 986.3 6.8
2016-Jan-18 20:10N 57°23' W 149°56'2 0.7 985.9 6.8
2016-Jan-18 17:10N 57°23' W 149°52'1 0.6 984.1 6.6
2016-Jan-18 16:10N 57°22' W 149°52'3 0.9 983.8 6.6
2016-Jan-18 13:10N 57°24' W 149°48'1 0.6 983.6 6.6
2016-Jan-18 11:10N 57°24' W 149°46'2 0.4 983.4 6.6
2016-Jan-18 05:10N 57°25' W 149°42'6 1.4 983.6 6.6
2016-Jan-18 01:10N 57°28' W 149°32'1 0.6 984.2 6.6
2016-Jan-18 00:10N 57°28' W 149°31'1 1.1 984.8 6.6
2016-Jan-17 23:10N 57°29' W 149°30'1 0.5 985.5 6.6
2016-Jan-17 22:10N 57°29' W 149°30'0 0.4 986.0 6.6
2016-Jan-17 21:10N 57°29' W 149°29'0 0.4 986.6 6.6
2016-Jan-17 20:10N 57°30' W 149°30'9 0.5 987.0 6.6
2016-Jan-17 03:10N 57°31' W 149°13'1 0.3 980.9 6.6
2016-Jan-17 01:10N 57°31' W 149°12'1 1.3 980.0 6.5
2016-Jan-17 00:10N 57°31' W 149°14'0 0.0 979.5 6.5
2016-Jan-16 23:10N 57°31' W 149°14'3 2.8 979.6 6.5
2016-Jan-16 22:10N 57°33' W 149°10'2 1.0 979.8 6.6
2016-Jan-16 20:10N 57°34' W 149°07'0 0.0 980.4 6.5
2016-Jan-16 19:10N 57°34' W 149°07'1 0.5 980.6 6.5
2016-Jan-16 18:10N 57°34' W 149°07'1 0.8 980.8 6.5
2016-Jan-16 17:10N 57°35' W 149°06'2 2.1 981.1 6.5
2016-Jan-16 16:10N 57°36' W 149°02'1 0.5 981.7 6.5
2016-Jan-16 14:10N 57°35' W 149°02'4 1.9 983.3 6.5
2016-Jan-16 12:10N 57°36' W 148°56'0 0.0 985.2 6.4
2016-Jan-16 11:10N 57°36' W 148°56'3 1.4 986.1 6.6
2016-Jan-16 09:10N 57°38' W 148°51'0 0.0 987.7 6.7
2016-Jan-16 08:10N 57°38' W 148°51'2 1.6 988.4 6.7
2016-Jan-16 07:10N 57°39' W 148°49'0 0.0 989.1 6.4
2016-Jan-16 06:10N 57°39' W 148°49'1 1.3 989.8 6.2
2016-Jan-16 05:10N 57°38' W 148°47'2 1.8 990.7 6.3
2016-Jan-16 04:10N 57°39' W 148°45'1 0.6 991.1 6.4
2016-Jan-16 03:10N 57°39' W 148°44'3 1.3 992.0 6.4
2016-Jan-16 01:10N 57°39' W 148°39'   993.4 6.5

Dump ship's entire track history